createdAt,value
2022-10-26T00:00:03.875Z,6.90
2022-10-26T00:02:30.525Z,7.25
2022-10-26T00:04:58.646Z,7.25
2022-10-26T00:07:26.118Z,7.05
2022-10-26T00:09:52.733Z,6.88
2022-10-26T00:12:19.639Z,6.47
2022-10-26T00:14:46.214Z,6.47
2022-10-26T00:17:12.856Z,7.05
2022-10-26T00:19:39.875Z,6.43
2022-10-26T00:22:07.858Z,6.65
2022-10-26T00:24:34.409Z,6.80
2022-10-26T00:27:01.036Z,6.35
2022-10-26T00:29:27.634Z,6.53
2022-10-26T00:31:55.235Z,5.85
2022-10-26T00:34:21.842Z,6.22
2022-10-26T00:36:49.247Z,7.38
2022-10-26T00:39:17.171Z,5.97
2022-10-26T00:41:43.998Z,6.30
2022-10-26T00:44:46.770Z,6.20
2022-10-26T00:47:17.711Z,6.35
2022-10-26T00:49:47.685Z,6.68
2022-10-26T00:52:15.718Z,6.40
2022-10-26T00:54:44.093Z,6.60
2022-10-26T00:57:11.946Z,6.35
2022-10-26T00:59:39.445Z,6.28
2022-10-26T01:02:06.416Z,6.40
2022-10-26T01:04:33.334Z,6.43
2022-10-26T01:07:01.655Z,6.60
2022-10-26T01:09:28.605Z,5.80
2022-10-26T01:11:56.547Z,6.85
2022-10-26T01:14:25.843Z,6.47
2022-10-26T01:19:57.476Z,5.97
2022-10-26T01:22:28.834Z,5.57
2022-10-26T01:25:16.931Z,5.85
2022-10-26T01:27:47.323Z,6.03
2022-10-26T01:30:32.090Z,5.70
2022-10-26T01:33:23.544Z,6.00
2022-10-26T01:36:01.855Z,5.47
2022-10-26T01:38:32.963Z,5.50
2022-10-26T01:41:06.262Z,5.97
2022-10-26T01:43:39.052Z,5.28
2022-10-26T01:46:09.236Z,5.85
2022-10-26T01:48:37.108Z,5.32
2022-10-26T01:51:07.180Z,5.78
2022-10-26T01:53:33.762Z,5.60
2022-10-26T01:56:02.258Z,5.68
2022-10-26T01:59:02.785Z,5.65
2022-10-26T02:01:58.527Z,5.43
2022-10-26T02:04:38.276Z,5.18
2022-10-26T02:07:16.146Z,5.05
2022-10-26T02:09:50.789Z,5.33
2022-10-26T02:12:30.383Z,5.82
2022-10-26T02:15:02.770Z,5.50
2022-10-26T02:17:38.437Z,5.30
2022-10-26T02:20:08.900Z,5.82
2022-10-26T02:22:39.194Z,5.75
2022-10-26T02:25:10.381Z,5.22
2022-10-26T02:27:42.815Z,5.88
2022-10-26T02:30:12.527Z,5.82
2022-10-26T02:32:45.241Z,5.93
2022-10-26T02:35:13.797Z,6.00
2022-10-26T02:37:42.486Z,6.93
2022-10-26T02:40:14.367Z,5.70
2022-10-26T02:42:45.002Z,5.68
2022-10-26T02:45:17.508Z,6.18
2022-10-26T02:47:45.696Z,5.40
2022-10-26T02:50:12.742Z,6.10
2022-10-26T02:52:51.517Z,5.88
2022-10-26T02:55:22.467Z,5.90
2022-10-26T02:57:54.350Z,5.70
2022-10-26T03:00:21.077Z,5.65
2022-10-26T03:02:55.081Z,6.28
2022-10-26T03:05:25.145Z,5.85
2022-10-26T03:07:51.980Z,5.90
2022-10-26T03:10:18.883Z,5.72
2022-10-26T03:12:46.029Z,5.85
2022-10-26T03:15:12.703Z,6.50
2022-10-26T03:17:39.743Z,5.78
2022-10-26T03:20:09.302Z,6.00
2022-10-26T03:22:36.307Z,5.57
2022-10-26T03:25:03.648Z,6.53
2022-10-26T03:27:30.445Z,5.63
2022-10-26T03:29:57.832Z,5.90
2022-10-26T03:32:24.629Z,5.68
2022-10-26T03:34:51.247Z,5.90
2022-10-26T03:37:19.456Z,5.75
2022-10-26T03:39:46.090Z,5.50
2022-10-26T03:42:12.721Z,5.90
2022-10-26T03:44:39.375Z,5.68
2022-10-26T03:47:06.072Z,6.15
2022-10-26T03:49:32.692Z,5.88
2022-10-26T03:51:59.324Z,6.07
2022-10-26T03:54:27.432Z,5.35
2022-10-26T03:56:55.247Z,6.15
2022-10-26T03:59:22.070Z,5.83
2022-10-26T04:01:51.510Z,5.72
2022-10-26T04:04:20.686Z,5.75
2022-10-26T04:06:47.432Z,6.30
2022-10-26T04:09:14.025Z,5.63
2022-10-26T04:11:42.015Z,6.18
2022-10-26T04:14:08.567Z,5.80
2022-10-26T04:16:35.211Z,5.72
2022-10-26T04:19:01.856Z,5.47
2022-10-26T04:21:28.638Z,6.32
2022-10-26T04:23:55.191Z,5.43
2022-10-26T04:26:21.939Z,5.93
2022-10-26T04:28:49.930Z,5.35
2022-10-26T04:31:16.601Z,6.03
2022-10-26T04:33:43.207Z,5.65
2022-10-26T04:36:10.011Z,5.80
2022-10-26T04:38:36.865Z,5.43
2022-10-26T04:41:03.543Z,5.38
2022-10-26T04:43:30.352Z,5.93
2022-10-26T04:45:58.751Z,5.75
2022-10-26T04:50:59.243Z,6.07
2022-10-26T04:53:25.879Z,5.85
2022-10-26T04:55:56.638Z,5.30
2022-10-26T04:58:23.199Z,5.60
2022-10-26T05:00:50.940Z,5.65
2022-10-26T05:03:18.898Z,5.18
2022-10-26T05:05:45.634Z,5.53
2022-10-26T05:08:12.226Z,5.40
2022-10-26T05:10:38.900Z,5.95
2022-10-26T05:13:05.518Z,5.55
2022-10-26T05:15:32.313Z,5.68
2022-10-26T05:18:00.450Z,6.28
2022-10-26T05:20:31.379Z,5.78
2022-10-26T05:22:58.750Z,5.85
2022-10-26T05:25:25.702Z,5.47
2022-10-26T05:27:52.430Z,5.10
2022-10-26T05:30:19.489Z,5.78
2022-10-26T05:32:53.741Z,5.45
2022-10-26T05:35:20.537Z,5.55
2022-10-26T05:37:48.600Z,5.45
2022-10-26T05:40:16.658Z,5.95
2022-10-26T05:42:43.524Z,5.65
2022-10-26T05:45:10.799Z,4.70
2022-10-26T05:47:38.366Z,5.78
2022-10-26T05:50:05.597Z,5.45
2022-10-26T05:52:38.788Z,5.40
2022-10-26T05:57:40.235Z,5.22
2022-10-26T06:00:08.740Z,5.65
2022-10-26T06:02:44.842Z,5.78
2022-10-26T06:05:17.547Z,5.15
2022-10-26T06:07:44.567Z,5.70
2022-10-26T06:10:14.051Z,5.53
2022-10-26T06:12:41.192Z,5.72
2022-10-26T06:15:19.538Z,5.15
2022-10-26T06:17:56.864Z,4.93
2022-10-26T06:20:39.482Z,5.38
2022-10-26T06:23:21.022Z,5.10
2022-10-26T06:25:56.068Z,5.32
2022-10-26T06:28:33.861Z,5.07
2022-10-26T06:31:00.510Z,5.18
2022-10-26T06:33:29.963Z,5.30
2022-10-26T06:36:10.688Z,5.28
2022-10-26T06:38:41.455Z,4.97
2022-10-26T06:41:10.764Z,5.45
2022-10-26T06:43:37.818Z,5.38
2022-10-26T06:46:16.445Z,5.40
2022-10-26T06:48:51.438Z,5.10
2022-10-26T06:51:18.618Z,4.75
2022-10-26T06:53:51.957Z,5.43
2022-10-26T06:56:20.751Z,5.20
2022-10-26T07:01:16.775Z,5.05
2022-10-26T07:03:43.464Z,4.78
2022-10-26T07:06:10.212Z,5.03
2022-10-26T07:08:36.935Z,6.15
2022-10-26T07:11:04.761Z,4.95
2022-10-26T07:13:32.775Z,5.60
2022-10-26T07:15:59.359Z,5.47
2022-10-26T07:18:25.935Z,6.05
2022-10-26T07:20:52.589Z,5.50
2022-10-26T07:23:19.450Z,5.75
2022-10-26T07:25:46.171Z,5.47
2022-10-26T07:28:12.904Z,5.55
2022-10-26T07:30:41.034Z,5.10
2022-10-26T07:33:09.325Z,5.18
2022-10-26T07:35:36.615Z,5.05
2022-10-26T07:38:04.312Z,4.85
2022-10-26T07:40:31.662Z,5.15
2022-10-26T07:42:59.393Z,5.18
2022-10-26T07:45:27.038Z,4.75
2022-10-26T07:47:55.190Z,4.55
2022-10-26T07:50:22.440Z,4.82
2022-10-26T07:52:49.507Z,5.00
2022-10-26T07:55:16.685Z,4.65
2022-10-26T07:57:43.285Z,4.97
2022-10-26T08:00:11.777Z,4.60
2022-10-26T08:02:38.421Z,4.82
2022-10-26T08:05:07.415Z,4.80
2022-10-26T08:07:33.995Z,4.63
2022-10-26T08:10:00.936Z,4.85
2022-10-26T08:12:27.650Z,4.25
2022-10-26T08:14:54.274Z,4.60
2022-10-26T08:17:21.560Z,4.72
2022-10-26T08:19:49.158Z,4.10
2022-10-26T08:22:17.417Z,4.22
2022-10-26T08:24:46.701Z,3.63
2022-10-26T08:27:14.008Z,3.25
2022-10-26T08:29:40.703Z,3.75
2022-10-26T08:32:07.915Z,3.42
2022-10-26T08:34:34.519Z,3.40
2022-10-26T08:37:01.465Z,3.35
2022-10-26T08:39:30.664Z,3.05
2022-10-26T08:42:02.127Z,3.30
2022-10-26T08:44:35.904Z,3.08
2022-10-26T08:47:11.117Z,2.97
2022-10-26T08:49:44.225Z,3.05
2022-10-26T08:52:15.822Z,2.92
2022-10-26T08:54:48.951Z,2.47
2022-10-26T08:57:21.516Z,2.55
2022-10-26T08:59:53.980Z,2.47
2022-10-26T09:02:21.645Z,2.83
2022-10-26T09:04:48.508Z,2.97
2022-10-26T09:07:38.853Z,2.72
2022-10-26T09:10:20.278Z,2.50
2022-10-26T09:12:54.112Z,2.63
2022-10-26T09:15:28.573Z,2.83
2022-10-26T09:18:05.766Z,2.70
2022-10-26T09:20:50.502Z,2.55
2022-10-26T09:23:33.500Z,2.53
2022-10-26T09:26:03.992Z,2.85
2022-10-26T09:28:35.079Z,2.78
2022-10-26T09:31:04.146Z,2.97
2022-10-26T09:33:34.782Z,3.50
2022-10-26T09:36:03.198Z,3.50
2022-10-26T09:38:32.314Z,3.10
2022-10-26T09:41:05.503Z,3.20
2022-10-26T09:43:40.108Z,3.42
2022-10-26T09:46:13.398Z,3.30
2022-10-26T09:48:46.413Z,3.78
2022-10-26T09:51:13.099Z,3.35
2022-10-26T09:53:39.680Z,3.70
2022-10-26T09:56:10.538Z,3.70
2022-10-26T09:58:42.439Z,4.00
2022-10-26T10:01:21.499Z,3.85
2022-10-26T10:03:48.226Z,3.83
2022-10-26T10:06:17.856Z,3.90
2022-10-26T10:09:04.017Z,3.67
2022-10-26T10:11:40.361Z,4.00
2022-10-26T10:14:08.823Z,3.55
2022-10-26T10:16:36.278Z,3.88
2022-10-26T10:19:02.968Z,4.15
2022-10-26T10:21:36.111Z,3.63
2022-10-26T10:24:03.035Z,3.97
2022-10-26T10:26:29.624Z,3.85
2022-10-26T10:28:59.601Z,4.10
2022-10-26T10:31:30.726Z,3.60
2022-10-26T10:33:57.851Z,4.00
2022-10-26T10:36:27.278Z,3.58
2022-10-26T10:38:54.441Z,3.83
2022-10-26T10:41:28.713Z,3.67
2022-10-26T10:44:07.045Z,3.45
2022-10-26T10:46:34.011Z,3.17
2022-10-26T10:49:05.122Z,3.45
2022-10-26T10:51:38.750Z,3.90
2022-10-26T10:54:11.476Z,3.20
2022-10-26T10:56:42.063Z,3.50
2022-10-26T10:59:38.798Z,3.40
2022-10-26T11:02:43.651Z,3.33
2022-10-26T11:05:27.637Z,3.30
2022-10-26T11:07:57.920Z,3.55
2022-10-26T11:10:27.925Z,3.42
2022-10-26T11:12:58.173Z,3.13
2022-10-26T11:15:30.869Z,3.38
2022-10-26T11:18:05.194Z,3.20
2022-10-26T11:20:34.711Z,3.15
2022-10-26T11:23:08.614Z,3.03
2022-10-26T11:25:41.712Z,3.22
2022-10-26T11:28:15.018Z,3.00
2022-10-26T11:30:49.527Z,2.90
2022-10-26T11:33:19.339Z,3.50
2022-10-26T11:35:51.131Z,3.10
2022-10-26T11:38:32.946Z,3.13
2022-10-26T11:41:18.957Z,2.78
2022-10-26T11:43:48.106Z,2.90
2022-10-26T11:46:21.348Z,2.90
2022-10-26T11:48:54.629Z,2.60
2022-10-26T11:51:33.163Z,2.70
2022-10-26T11:56:37.030Z,2.80
2022-10-26T11:59:04.853Z,2.80
2022-10-26T12:01:34.518Z,2.20
2022-10-26T12:04:03.125Z,2.50
2022-10-26T12:06:32.063Z,2.72
2022-10-26T12:09:05.025Z,3.10
2022-10-26T12:11:39.384Z,3.20
2022-10-26T12:14:15.935Z,3.17
2022-10-26T12:16:52.124Z,3.08
2022-10-26T12:19:24.828Z,2.70
2022-10-26T12:21:52.647Z,2.80
2022-10-26T12:24:28.397Z,2.90
2022-10-26T12:26:56.911Z,3.20
2022-10-26T12:29:46.945Z,2.80
2022-10-26T12:32:49.163Z,2.97
2022-10-26T12:35:47.845Z,2.63
2022-10-26T12:38:42.886Z,2.55
2022-10-26T12:41:19.748Z,2.85
2022-10-26T12:43:46.827Z,2.88
2022-10-26T12:46:41.004Z,2.70
2022-10-26T12:49:55.680Z,3.20
2022-10-26T12:52:43.824Z,2.40
2022-10-26T12:55:49.210Z,2.60
2022-10-26T12:58:31.128Z,2.47
2022-10-26T13:01:18.586Z,2.88
2022-10-26T13:03:55.111Z,2.43
2022-10-26T13:06:37.524Z,2.90
2022-10-26T13:09:16.327Z,3.00
2022-10-26T13:11:48.722Z,2.80
2022-10-26T13:14:20.844Z,2.92
2022-10-26T13:16:47.899Z,2.92
2022-10-26T13:19:24.688Z,3.30
2022-10-26T13:21:51.948Z,2.83
2022-10-26T13:24:22.219Z,3.78
2022-10-26T13:27:24.609Z,3.38
2022-10-26T13:30:19.360Z,3.72
2022-10-26T13:32:51.596Z,3.70
2022-10-26T13:35:20.953Z,3.67
2022-10-26T13:37:50.712Z,3.40
2022-10-26T13:40:21.399Z,3.38
2022-10-26T13:42:51.417Z,3.70
2022-10-26T13:45:21.831Z,3.83
2022-10-26T13:47:55.504Z,4.30
2022-10-26T13:50:27.640Z,3.95
2022-10-26T13:53:01.344Z,3.88
2022-10-26T13:55:33.814Z,4.05
2022-10-26T13:58:17.613Z,3.95
2022-10-26T14:01:02.904Z,4.00
2022-10-26T14:03:29.747Z,4.10
2022-10-26T14:05:56.610Z,4.03
2022-10-26T14:08:23.392Z,4.15
2022-10-26T14:10:56.439Z,3.85
2022-10-26T14:13:27.376Z,3.65
2022-10-26T14:15:55.733Z,3.53
2022-10-26T14:18:25.812Z,3.58
2022-10-26T14:20:57.112Z,3.60
2022-10-26T14:23:28.859Z,3.25
2022-10-26T14:25:59.007Z,3.42
2022-10-26T14:28:29.217Z,3.30
2022-10-26T14:31:11.588Z,3.17
2022-10-26T14:33:38.983Z,3.00
2022-10-26T14:36:07.028Z,2.63
2022-10-26T14:38:42.865Z,2.70
2022-10-26T14:41:12.069Z,2.53
2022-10-26T14:43:38.941Z,2.40
2022-10-26T14:46:06.099Z,2.30
2022-10-26T14:48:34.907Z,2.17
2022-10-26T14:51:03.815Z,2.35
2022-10-26T14:53:35.679Z,2.20
2022-10-26T14:56:04.643Z,1.90
2022-10-26T14:58:34.013Z,2.13
2022-10-26T15:01:25.286Z,2.10
2022-10-26T15:03:55.405Z,1.70
2022-10-26T15:06:27.291Z,1.80
2022-10-26T15:08:57.173Z,1.67
2022-10-26T15:11:24.587Z,1.70
2022-10-26T15:13:53.774Z,1.80
2022-10-26T15:16:22.757Z,1.90
2022-10-26T15:18:52.688Z,2.00
2022-10-26T15:21:25.899Z,2.00
2022-10-26T15:23:54.684Z,1.70
2022-10-26T15:26:21.655Z,1.45
2022-10-26T15:28:51.054Z,1.73
2022-10-26T15:31:33.142Z,1.58
2022-10-26T15:34:15.425Z,1.70
2022-10-26T15:36:42.943Z,1.52
2022-10-26T15:39:10.500Z,1.70
2022-10-26T15:41:44.285Z,2.00
2022-10-26T15:44:16.251Z,2.22
2022-10-26T15:46:46.144Z,2.38
2022-10-26T15:49:17.818Z,2.20
2022-10-26T15:51:46.189Z,2.00
2022-10-26T15:54:12.964Z,2.00
2022-10-26T15:56:39.959Z,1.75
2022-10-26T15:59:14.719Z,1.50
2022-10-26T16:01:41.501Z,1.60
2022-10-26T16:04:11.306Z,1.75
2022-10-26T16:06:40.907Z,1.60
2022-10-26T16:09:12.915Z,1.60
2022-10-26T16:11:39.654Z,1.58
2022-10-26T16:14:06.444Z,1.50
2022-10-26T16:16:33.091Z,1.55
2022-10-26T16:19:12.186Z,1.60
2022-10-26T16:21:51.344Z,1.30
2022-10-26T16:24:18.372Z,1.30
2022-10-26T16:26:45.053Z,1.27
2022-10-26T16:29:11.651Z,1.40
2022-10-26T16:31:38.477Z,1.50
2022-10-26T16:34:05.129Z,1.40
2022-10-26T16:36:34.931Z,1.30
2022-10-26T16:41:35.006Z,1.30
2022-10-26T16:44:01.635Z,1.33
2022-10-26T16:46:28.326Z,1.50
2022-10-26T16:48:55.039Z,1.30
2022-10-26T16:51:23.389Z,1.63
2022-10-26T16:53:51.652Z,1.42
2022-10-26T16:56:21.793Z,1.70
2022-10-26T16:58:49.177Z,1.52
2022-10-26T17:01:20.600Z,1.95
2022-10-26T17:03:48.520Z,1.52
2022-10-26T17:06:15.958Z,1.40
2022-10-26T17:08:42.961Z,1.48
2022-10-26T17:11:12.283Z,1.58
2022-10-26T17:13:40.790Z,1.70
2022-10-26T17:16:11.005Z,1.55
2022-10-26T17:18:39.428Z,1.60
2022-10-26T17:21:06.503Z,1.52
2022-10-26T17:23:33.083Z,1.40
2022-10-26T17:26:01.469Z,1.48
2022-10-26T17:28:28.076Z,1.95
2022-10-26T17:31:03.911Z,1.80
2022-10-26T17:33:31.989Z,1.75
2022-10-26T17:35:59.111Z,1.58
2022-10-26T17:38:25.724Z,1.30
2022-10-26T17:40:52.367Z,1.55
2022-10-26T17:43:19.194Z,1.67
2022-10-26T17:45:45.811Z,1.65
2022-10-26T17:48:13.739Z,1.77
2022-10-26T17:50:40.493Z,1.50
2022-10-26T17:53:07.553Z,1.63
2022-10-26T17:55:34.122Z,1.38
2022-10-26T17:58:00.753Z,1.83
2022-10-26T18:00:27.524Z,1.65
2022-10-26T18:02:54.524Z,1.40
2022-10-26T18:05:22.649Z,1.60
2022-10-26T18:07:49.505Z,1.73
2022-10-26T18:13:03.156Z,1.60
2022-10-26T18:15:29.894Z,1.48
2022-10-26T18:17:58.463Z,1.48
2022-10-26T18:20:28.699Z,1.77
2022-10-26T18:22:55.975Z,1.58
2022-10-26T18:25:22.663Z,1.73
2022-10-26T18:27:49.279Z,1.77
2022-10-26T18:30:16.034Z,2.10
2022-10-26T18:32:42.923Z,1.58
2022-10-26T18:35:09.583Z,1.90
2022-10-26T18:37:37.556Z,2.00
2022-10-26T18:40:05.041Z,1.80
2022-10-26T18:42:31.735Z,1.80
2022-10-26T18:45:01.303Z,1.83
2022-10-26T18:47:29.527Z,2.03
2022-10-26T18:49:56.236Z,1.80
2022-10-26T18:52:29.008Z,1.90
2022-10-26T18:54:57.025Z,1.92
2022-10-26T18:57:26.963Z,1.58
2022-10-26T18:59:55.010Z,2.15
2022-10-26T19:02:23.127Z,2.08
2022-10-26T19:04:51.535Z,2.15
2022-10-26T19:07:18.332Z,2.53
2022-10-26T19:09:44.955Z,2.50
2022-10-26T19:12:12.879Z,2.70
2022-10-26T19:14:39.627Z,2.63
2022-10-26T19:17:06.257Z,2.67
2022-10-26T19:19:33.016Z,2.40
2022-10-26T19:22:01.120Z,2.10
2022-10-26T19:24:27.796Z,2.45
2022-10-26T19:26:54.573Z,2.42
2022-10-26T19:29:22.785Z,2.20
2022-10-26T19:31:53.153Z,2.15
2022-10-26T19:34:20.105Z,2.00
2022-10-26T19:36:47.655Z,2.25
2022-10-26T19:39:15.848Z,2.17
2022-10-26T19:41:43.302Z,2.13
2022-10-26T19:44:11.216Z,2.22
2022-10-26T19:46:39.769Z,2.80
2022-10-26T19:51:33.261Z,1.95
2022-10-26T19:54:03.895Z,1.98
2022-10-26T19:56:31.413Z,2.20
2022-10-26T19:58:58.798Z,1.95
2022-10-26T20:01:25.560Z,2.22
2022-10-26T20:03:53.644Z,2.20
2022-10-26T20:06:20.293Z,2.28
2022-10-26T20:08:48.662Z,2.20
2022-10-26T20:11:16.659Z,2.38
2022-10-26T20:13:45.343Z,2.30
2022-10-26T20:18:42.749Z,1.90
2022-10-26T20:21:14.457Z,2.15
2022-10-26T20:23:41.121Z,2.05
2022-10-26T20:26:07.871Z,2.20
2022-10-26T20:28:34.852Z,2.28
2022-10-26T20:31:01.694Z,2.42
2022-10-26T20:33:28.386Z,2.30
2022-10-26T20:35:58.661Z,2.50
2022-10-26T20:38:27.977Z,2.60
2022-10-26T20:40:56.386Z,2.22
2022-10-26T20:43:24.080Z,2.50
2022-10-26T20:45:51.428Z,2.10
2022-10-26T20:48:18.672Z,2.67
2022-10-26T20:50:53.183Z,2.50
2022-10-26T20:53:29.389Z,2.75
2022-10-26T20:55:58.998Z,2.70
2022-10-26T20:58:37.432Z,2.30
2022-10-26T21:01:06.910Z,2.67
2022-10-26T21:03:33.777Z,2.83
2022-10-26T21:06:00.332Z,2.53
2022-10-26T21:08:28.317Z,2.60
2022-10-26T21:10:54.957Z,2.67
2022-10-26T21:13:21.567Z,3.10
2022-10-26T21:15:48.818Z,3.75
2022-10-26T21:18:15.465Z,4.00
2022-10-26T21:20:42.055Z,3.97
2022-10-26T21:23:08.687Z,4.03
2022-10-26T21:25:37.172Z,3.50
2022-10-26T21:28:06.823Z,3.35
2022-10-26T21:30:33.959Z,4.18
2022-10-26T21:33:00.682Z,3.47
2022-10-26T21:35:27.292Z,3.28
2022-10-26T21:37:54.709Z,3.35
2022-10-26T21:40:21.280Z,3.70
2022-10-26T21:42:51.201Z,3.28
2022-10-26T21:45:18.267Z,3.60
2022-10-26T21:47:45.094Z,3.30
2022-10-26T21:50:12.040Z,3.80
2022-10-26T21:52:38.687Z,4.13
2022-10-26T21:55:06.061Z,3.92
2022-10-26T21:57:32.696Z,3.40
2022-10-26T22:00:00.743Z,3.38
2022-10-26T22:02:27.400Z,3.60
2022-10-26T22:04:54.687Z,3.78
2022-10-26T22:07:21.354Z,3.88
2022-10-26T22:10:07.635Z,3.67
2022-10-26T22:12:34.717Z,3.78
2022-10-26T22:15:02.908Z,3.70
2022-10-26T22:17:29.518Z,4.25
2022-10-26T22:19:56.148Z,3.42
2022-10-26T22:22:22.689Z,3.83
2022-10-26T22:24:49.494Z,3.72
2022-10-26T22:27:16.204Z,3.65
2022-10-26T22:29:42.764Z,4.28
2022-10-26T22:32:10.766Z,3.80
2022-10-26T22:34:37.324Z,3.78
2022-10-26T22:37:03.993Z,3.92
2022-10-26T22:39:30.550Z,3.55
2022-10-26T22:41:57.268Z,3.90
2022-10-26T22:44:23.984Z,4.32
2022-10-26T22:46:50.630Z,3.78
2022-10-26T22:49:19.716Z,4.13
2022-10-26T22:51:46.271Z,3.78
2022-10-26T22:54:13.271Z,4.30
2022-10-26T22:56:39.892Z,4.30
2022-10-26T22:59:07.643Z,4.20
2022-10-26T23:01:38.667Z,3.97
2022-10-26T23:04:05.503Z,4.15
2022-10-26T23:06:33.833Z,3.70
2022-10-26T23:09:00.463Z,3.83
2022-10-26T23:11:28.617Z,4.00
2022-10-26T23:13:56.462Z,4.45
2022-10-26T23:16:23.222Z,4.60
2022-10-26T23:18:49.897Z,4.75
2022-10-26T23:21:17.776Z,4.50
2022-10-26T23:23:45.937Z,4.87
2022-10-26T23:26:14.666Z,5.07
2022-10-26T23:28:42.438Z,4.80
2022-10-26T23:31:14.785Z,4.85
2022-10-26T23:33:41.356Z,4.90
2022-10-26T23:36:07.953Z,4.50
2022-10-26T23:38:34.607Z,4.82
2022-10-26T23:41:02.798Z,4.80
2022-10-26T23:43:29.612Z,4.90
2022-10-26T23:45:56.580Z,4.43
2022-10-26T23:48:23.435Z,4.78
2022-10-26T23:50:51.012Z,4.25
2022-10-26T23:53:21.065Z,4.47
2022-10-26T23:55:48.474Z,4.22
2022-10-26T23:58:17.518Z,4.43
